Raymond, Washington
Current Conditions -  °F | °C
As of 6:53 PM on Sunday 21 Dec 2014 (Local Time) from KHQM Reporting Station
Haze Haze  
Wind Chill: 51°   Ceiling: 6000
Heat Index: 51°   Visibility: 4mi
Dew Point: 50°   Wind: 9mph
Humidity: 96%   Direction: 230°SW
Pressure: 30.08"   Gusts: NA
Location:  46.69°N, 123.73°W
Report Text: KHQM 220253Z AUTO 23008KT 4SM BR FEW025 BKN060 11/10 A3008 RMK AO2 PRESFR SLP189 T01060100 50005
Loading
Personal Weather Stations






























Interactive Weather Map New forecast layout! Learn more

10-Day Weather Forecast

Advertisements
Track Severe Weather on mobile